sensor_id;sensor_type;location;lat;lon;timestamp;temperature;humidity
51855;DHT22;37895;53.240;6.572;2023-05-18T00:00:19;8.30;94.00
51855;DHT22;37895;53.240;6.572;2023-05-18T00:02:46;8.20;94.10
51855;DHT22;37895;53.240;6.572;2023-05-18T00:05:17;8.20;94.20
51855;DHT22;37895;53.240;6.572;2023-05-18T00:07:44;8.20;94.30
51855;DHT22;37895;53.240;6.572;2023-05-18T00:10:10;8.30;94.10
51855;DHT22;37895;53.240;6.572;2023-05-18T00:12:36;8.60;94.60
51855;DHT22;37895;53.240;6.572;2023-05-18T00:15:02;8.30;94.50
51855;DHT22;37895;53.240;6.572;2023-05-18T00:17:29;8.20;94.40
51855;DHT22;37895;53.240;6.572;2023-05-18T00:19:56;8.20;94.60
51855;DHT22;37895;53.240;6.572;2023-05-18T00:22:23;8.20;94.50
51855;DHT22;37895;53.240;6.572;2023-05-18T00:24:51;8.20;94.30
51855;DHT22;37895;53.240;6.572;2023-05-18T00:27:16;8.30;94.20
51855;DHT22;37895;53.240;6.572;2023-05-18T00:29:42;8.20;94.10
51855;DHT22;37895;53.240;6.572;2023-05-18T00:32:08;8.30;93.60
51855;DHT22;37895;53.240;6.572;2023-05-18T00:34:33;8.20;93.70
51855;DHT22;37895;53.240;6.572;2023-05-18T00:36:59;8.20;94.10
51855;DHT22;37895;53.240;6.572;2023-05-18T00:39:25;8.30;94.30
51855;DHT22;37895;53.240;6.572;2023-05-18T00:41:50;8.20;94.40
51855;DHT22;37895;53.240;6.572;2023-05-18T00:44:16;8.20;94.30
51855;DHT22;37895;53.240;6.572;2023-05-18T00:46:42;8.30;94.30
51855;DHT22;37895;53.240;6.572;2023-05-18T00:49:08;8.30;94.60
51855;DHT22;37895;53.240;6.572;2023-05-18T00:51:34;8.30;94.70
51855;DHT22;37895;53.240;6.572;2023-05-18T00:54:01;8.20;94.40
51855;DHT22;37895;53.240;6.572;2023-05-18T00:56:28;8.20;94.40
51855;DHT22;37895;53.240;6.572;2023-05-18T00:59:00;8.20;94.30
51855;DHT22;37895;53.240;6.572;2023-05-18T01:01:31;8.60;94.20
51855;DHT22;37895;53.240;6.572;2023-05-18T01:04:00;8.20;94.10
51855;DHT22;37895;53.240;6.572;2023-05-18T01:06:27;8.20;94.00
51855;DHT22;37895;53.240;6.572;2023-05-18T01:08:58;8.20;93.70
51855;DHT22;37895;53.240;6.572;2023-05-18T01:28:31;8.30;94.40
51855;DHT22;37895;53.240;6.572;2023-05-18T01:30:58;8.30;94.20
51855;DHT22;37895;53.240;6.572;2023-05-18T01:33:24;8.40;94.10
51855;DHT22;37895;53.240;6.572;2023-05-18T01:35:50;8.40;93.70
51855;DHT22;37895;53.240;6.572;2023-05-18T01:38:17;8.40;93.40
51855;DHT22;37895;53.240;6.572;2023-05-18T01:41:19;8.40;93.30
51855;DHT22;37895;53.240;6.572;2023-05-18T01:47:07;8.40;93.30
51855;DHT22;37895;53.240;6.572;2023-05-18T01:49:50;8.40;93.30
51855;DHT22;37895;53.240;6.572;2023-05-18T01:52:20;8.40;93.40
51855;DHT22;37895;53.240;6.572;2023-05-18T01:54:49;8.40;93.40
51855;DHT22;37895;53.240;6.572;2023-05-18T01:57:17;8.40;93.80
51855;DHT22;37895;53.240;6.572;2023-05-18T01:59:45;8.40;93.80
51855;DHT22;37895;53.240;6.572;2023-05-18T02:02:12;8.40;93.50
51855;DHT22;37895;53.240;6.572;2023-05-18T02:04:38;8.40;93.50
51855;DHT22;37895;53.240;6.572;2023-05-18T02:07:04;8.40;93.40
51855;DHT22;37895;53.240;6.572;2023-05-18T02:09:30;8.40;94.00
51855;DHT22;37895;53.240;6.572;2023-05-18T02:11:55;8.30;94.70
51855;DHT22;37895;53.240;6.572;2023-05-18T02:14:21;8.40;94.00
51855;DHT22;37895;53.240;6.572;2023-05-18T02:16:46;8.40;94.00
51855;DHT22;37895;53.240;6.572;2023-05-18T02:19:20;8.40;94.10
51855;DHT22;37895;53.240;6.572;2023-05-18T02:21:45;8.40;94.10
51855;DHT22;37895;53.240;6.572;2023-05-18T02:24:11;8.50;94.50
51855;DHT22;37895;53.240;6.572;2023-05-18T02:26:37;8.40;94.70
51855;DHT22;37895;53.240;6.572;2023-05-18T02:29:06;8.40;94.80
51855;DHT22;37895;53.240;6.572;2023-05-18T02:31:33;8.70;95.10
51855;DHT22;37895;53.240;6.572;2023-05-18T02:34:00;8.40;95.00
51855;DHT22;37895;53.240;6.572;2023-05-18T02:36:26;8.40;94.40
51855;DHT22;37895;53.240;6.572;2023-05-18T02:38:51;8.50;94.40
51855;DHT22;37895;53.240;6.572;2023-05-18T02:41:17;8.40;94.10
51855;DHT22;37895;53.240;6.572;2023-05-18T02:43:42;8.50;94.80
51855;DHT22;37895;53.240;6.572;2023-05-18T02:46:08;8.40;95.00
51855;DHT22;37895;53.240;6.572;2023-05-18T02:48:33;8.40;94.90
51855;DHT22;37895;53.240;6.572;2023-05-18T02:50:59;8.40;94.90
51855;DHT22;37895;53.240;6.572;2023-05-18T02:53:26;8.40;95.10
51855;DHT22;37895;53.240;6.572;2023-05-18T02:55:55;8.40;95.20
51855;DHT22;37895;53.240;6.572;2023-05-18T02:58:26;8.50;95.30
51855;DHT22;37895;53.240;6.572;2023-05-18T03:00:52;8.40;95.10
51855;DHT22;37895;53.240;6.572;2023-05-18T03:03:20;8.40;95.10
51855;DHT22;37895;53.240;6.572;2023-05-18T03:05:45;8.40;95.30
51855;DHT22;37895;53.240;6.572;2023-05-18T03:08:11;8.40;95.20
51855;DHT22;37895;53.240;6.572;2023-05-18T03:10:38;8.40;94.80
51855;DHT22;37895;53.240;6.572;2023-05-18T03:13:04;8.40;94.80
51855;DHT22;37895;53.240;6.572;2023-05-18T03:15:29;8.50;94.70
51855;DHT22;37895;53.240;6.572;2023-05-18T03:17:58;8.40;94.80
51855;DHT22;37895;53.240;6.572;2023-05-18T03:20:27;8.40;94.70
51855;DHT22;37895;53.240;6.572;2023-05-18T03:22:54;8.40;94.60
51855;DHT22;37895;53.240;6.572;2023-05-18T03:25:20;8.40;94.30
51855;DHT22;37895;53.240;6.572;2023-05-18T03:27:47;8.40;94.00
51855;DHT22;37895;53.240;6.572;2023-05-18T03:30:12;8.30;94.20
51855;DHT22;37895;53.240;6.572;2023-05-18T03:32:38;8.40;94.40
51855;DHT22;37895;53.240;6.572;2023-05-18T03:35:05;8.30;94.60
51855;DHT22;37895;53.240;6.572;2023-05-18T03:37:31;8.30;94.60
51855;DHT22;37895;53.240;6.572;2023-05-18T03:40:10;8.30;94.10
51855;DHT22;37895;53.240;6.572;2023-05-18T03:42:37;8.40;94.00
51855;DHT22;37895;53.240;6.572;2023-05-18T03:45:04;8.30;94.00
51855;DHT22;37895;53.240;6.572;2023-05-18T03:47:29;8.40;94.10
51855;DHT22;37895;53.240;6.572;2023-05-18T03:49:55;8.40;94.10
51855;DHT22;37895;53.240;6.572;2023-05-18T03:52:20;8.40;94.30
51855;DHT22;37895;53.240;6.572;2023-05-18T03:54:50;8.40;94.20
51855;DHT22;37895;53.240;6.572;2023-05-18T03:57:16;8.50;94.30
51855;DHT22;37895;53.240;6.572;2023-05-18T03:59:42;8.50;94.50
51855;DHT22;37895;53.240;6.572;2023-05-18T04:02:08;8.50;94.90
51855;DHT22;37895;53.240;6.572;2023-05-18T04:04:34;8.50;94.30
51855;DHT22;37895;53.240;6.572;2023-05-18T04:07:01;8.50;94.40
51855;DHT22;37895;53.240;6.572;2023-05-18T04:09:27;8.40;94.70
51855;DHT22;37895;53.240;6.572;2023-05-18T04:11:54;8.40;94.90
51855;DHT22;37895;53.240;6.572;2023-05-18T04:14:19;8.50;94.80
51855;DHT22;37895;53.240;6.572;2023-05-18T04:16:45;8.40;94.50
51855;DHT22;37895;53.240;6.572;2023-05-18T04:19:11;8.50;94.80
51855;DHT22;37895;53.240;6.572;2023-05-18T04:21:38;8.50;94.70
51855;DHT22;37895;53.240;6.572;2023-05-18T04:24:07;8.60;94.30
51855;DHT22;37895;53.240;6.572;2023-05-18T04:26:34;8.60;94.20
51855;DHT22;37895;53.240;6.572;2023-05-18T04:29:01;8.70;94.10
51855;DHT22;37895;53.240;6.572;2023-05-18T04:31:28;8.70;94.00
51855;DHT22;37895;53.240;6.572;2023-05-18T04:33:54;8.80;93.70
51855;DHT22;37895;53.240;6.572;2023-05-18T04:36:19;8.80;93.40
51855;DHT22;37895;53.240;6.572;2023-05-18T04:38:45;8.80;93.40
51855;DHT22;37895;53.240;6.572;2023-05-18T04:41:11;9.30;93.70
51855;DHT22;37895;53.240;6.572;2023-05-18T04:43:37;8.90;93.70
51855;DHT22;37895;53.240;6.572;2023-05-18T04:46:03;8.90;93.30
51855;DHT22;37895;53.240;6.572;2023-05-18T04:48:29;8.90;93.00
51855;DHT22;37895;53.240;6.572;2023-05-18T04:50:56;9.00;93.00
51855;DHT22;37895;53.240;6.572;2023-05-18T04:53:22;9.30;92.90
51855;DHT22;37895;53.240;6.572;2023-05-18T04:55:48;9.00;92.70
51855;DHT22;37895;53.240;6.572;2023-05-18T04:58:15;9.10;92.50
51855;DHT22;37895;53.240;6.572;2023-05-18T05:00:40;9.20;92.20
51855;DHT22;37895;53.240;6.572;2023-05-18T05:03:07;9.20;92.20
51855;DHT22;37895;53.240;6.572;2023-05-18T05:05:33;9.20;92.20
51855;DHT22;37895;53.240;6.572;2023-05-18T05:07:59;9.20;92.10
51855;DHT22;37895;53.240;6.572;2023-05-18T05:10:25;9.30;92.10
51855;DHT22;37895;53.240;6.572;2023-05-18T05:12:52;9.30;91.80
51855;DHT22;37895;53.240;6.572;2023-05-18T05:15:18;9.30;91.70
51855;DHT22;37895;53.240;6.572;2023-05-18T05:17:48;9.40;91.50
51855;DHT22;37895;53.240;6.572;2023-05-18T05:20:14;9.40;90.90
51855;DHT22;37895;53.240;6.572;2023-05-18T05:22:40;9.50;90.60
51855;DHT22;37895;53.240;6.572;2023-05-18T05:25:06;9.50;90.60
51855;DHT22;37895;53.240;6.572;2023-05-18T05:27:32;9.50;90.80
51855;DHT22;37895;53.240;6.572;2023-05-18T05:29:58;9.60;90.80
51855;DHT22;37895;53.240;6.572;2023-05-18T05:32:23;9.70;90.60
51855;DHT22;37895;53.240;6.572;2023-05-18T05:34:49;9.70;90.90
51855;DHT22;37895;53.240;6.572;2023-05-18T05:37:16;9.80;90.50
51855;DHT22;37895;53.240;6.572;2023-05-18T05:39:42;9.80;90.30
51855;DHT22;37895;53.240;6.572;2023-05-18T05:42:08;9.80;90.40
51855;DHT22;37895;53.240;6.572;2023-05-18T05:44:34;9.80;90.40
51855;DHT22;37895;53.240;6.572;2023-05-18T05:46:59;9.80;90.40
51855;DHT22;37895;53.240;6.572;2023-05-18T05:49:25;9.80;89.60
51855;DHT22;37895;53.240;6.572;2023-05-18T05:55:53;10.00;89.00
51855;DHT22;37895;53.240;6.572;2023-05-18T06:05:06;10.30;89.20
51855;DHT22;37895;53.240;6.572;2023-05-18T06:07:32;10.40;88.50
51855;DHT22;37895;53.240;6.572;2023-05-18T06:09:57;10.40;88.40
51855;DHT22;37895;53.240;6.572;2023-05-18T06:12:23;10.50;88.10
51855;DHT22;37895;53.240;6.572;2023-05-18T06:14:49;10.50;85.10
51855;DHT22;37895;53.240;6.572;2023-05-18T06:17:18;10.40;85.70
51855;DHT22;37895;53.240;6.572;2023-05-18T06:19:44;10.50;86.90
51855;DHT22;37895;53.240;6.572;2023-05-18T06:22:10;10.50;86.60
51855;DHT22;37895;53.240;6.572;2023-05-18T06:24:35;10.50;86.00
51855;DHT22;37895;53.240;6.572;2023-05-18T06:27:01;10.50;86.50
51855;DHT22;37895;53.240;6.572;2023-05-18T06:29:27;10.50;85.80
51855;DHT22;37895;53.240;6.572;2023-05-18T06:31:53;10.40;84.70
51855;DHT22;37895;53.240;6.572;2023-05-18T06:34:19;10.40;85.00
51855;DHT22;37895;53.240;6.572;2023-05-18T06:36:44;10.40;86.70
51855;DHT22;37895;53.240;6.572;2023-05-18T06:39:10;10.40;87.50
51855;DHT22;37895;53.240;6.572;2023-05-18T06:41:36;10.40;87.60
51855;DHT22;37895;53.240;6.572;2023-05-18T06:44:02;10.30;86.40
51855;DHT22;37895;53.240;6.572;2023-05-18T06:46:27;10.30;86.40
51855;DHT22;37895;53.240;6.572;2023-05-18T06:48:53;10.30;86.00
51855;DHT22;37895;53.240;6.572;2023-05-18T06:51:19;10.40;86.20
51855;DHT22;37895;53.240;6.572;2023-05-18T06:53:45;10.40;85.50
51855;DHT22;37895;53.240;6.572;2023-05-18T06:56:10;10.40;86.60
51855;DHT22;37895;53.240;6.572;2023-05-18T06:58:38;10.40;86.80
51855;DHT22;37895;53.240;6.572;2023-05-18T07:01:03;10.50;87.30
51855;DHT22;37895;53.240;6.572;2023-05-18T07:03:29;10.50;86.70
51855;DHT22;37895;53.240;6.572;2023-05-18T07:05:55;10.50;87.20
51855;DHT22;37895;53.240;6.572;2023-05-18T07:08:20;10.60;86.80
51855;DHT22;37895;53.240;6.572;2023-05-18T07:10:46;10.60;86.20
51855;DHT22;37895;53.240;6.572;2023-05-18T07:13:12;10.60;86.00
51855;DHT22;37895;53.240;6.572;2023-05-18T07:15:38;10.60;86.70
51855;DHT22;37895;53.240;6.572;2023-05-18T07:18:03;10.70;87.30
51855;DHT22;37895;53.240;6.572;2023-05-18T07:20:29;10.70;84.90
51855;DHT22;37895;53.240;6.572;2023-05-18T07:22:55;10.70;85.20
51855;DHT22;37895;53.240;6.572;2023-05-18T07:25:21;10.70;85.10
51855;DHT22;37895;53.240;6.572;2023-05-18T07:31:09;10.70;83.10
51855;DHT22;37895;53.240;6.572;2023-05-18T07:33:34;10.60;84.80
51855;DHT22;37895;53.240;6.572;2023-05-18T07:36:00;10.60;84.90
51855;DHT22;37895;53.240;6.572;2023-05-18T07:38:26;10.70;84.50
51855;DHT22;37895;53.240;6.572;2023-05-18T07:40:52;10.80;86.30
51855;DHT22;37895;53.240;6.572;2023-05-18T07:43:18;10.90;86.20
51855;DHT22;37895;53.240;6.572;2023-05-18T07:45:43;11.00;84.50
51855;DHT22;37895;53.240;6.572;2023-05-18T07:48:09;11.10;84.70
51855;DHT22;37895;53.240;6.572;2023-05-18T07:50:35;11.20;85.80
51855;DHT22;37895;53.240;6.572;2023-05-18T07:53:01;11.10;85.30
51855;DHT22;37895;53.240;6.572;2023-05-18T07:55:27;11.20;85.70
51855;DHT22;37895;53.240;6.572;2023-05-18T07:58:05;11.20;84.90
51855;DHT22;37895;53.240;6.572;2023-05-18T08:00:33;11.30;84.90
51855;DHT22;37895;53.240;6.572;2023-05-18T08:02:58;11.30;82.80
51855;DHT22;37895;53.240;6.572;2023-05-18T08:05:25;11.30;83.30
51855;DHT22;37895;53.240;6.572;2023-05-18T08:07:50;11.30;83.60
51855;DHT22;37895;53.240;6.572;2023-05-18T08:10:17;11.30;84.00
51855;DHT22;37895;53.240;6.572;2023-05-18T08:12:42;11.50;84.50
51855;DHT22;37895;53.240;6.572;2023-05-18T08:15:08;11.60;84.30
51855;DHT22;37895;53.240;6.572;2023-05-18T08:17:34;11.80;82.80
51855;DHT22;37895;53.240;6.572;2023-05-18T08:20:00;11.70;82.90
51855;DHT22;37895;53.240;6.572;2023-05-18T08:22:26;11.60;82.30
51855;DHT22;37895;53.240;6.572;2023-05-18T08:24:51;11.60;82.30
51855;DHT22;37895;53.240;6.572;2023-05-18T08:27:17;11.60;83.10
51855;DHT22;37895;53.240;6.572;2023-05-18T08:29:44;11.70;83.40
51855;DHT22;37895;53.240;6.572;2023-05-18T08:32:10;11.80;83.70
51855;DHT22;37895;53.240;6.572;2023-05-18T08:34:36;11.90;83.00
51855;DHT22;37895;53.240;6.572;2023-05-18T08:37:02;12.00;81.70
51855;DHT22;37895;53.240;6.572;2023-05-18T08:39:27;12.20;81.90
51855;DHT22;37895;53.240;6.572;2023-05-18T08:42:02;12.30;81.20
51855;DHT22;37895;53.240;6.572;2023-05-18T08:44:50;12.20;80.20
51855;DHT22;37895;53.240;6.572;2023-05-18T08:47:24;12.20;80.90
51855;DHT22;37895;53.240;6.572;2023-05-18T08:49:55;12.20;81.20
51855;DHT22;37895;53.240;6.572;2023-05-18T08:52:24;12.10;79.70
51855;DHT22;37895;53.240;6.572;2023-05-18T08:54:53;12.10;79.90
51855;DHT22;37895;53.240;6.572;2023-05-18T08:57:21;12.10;81.00
51855;DHT22;37895;53.240;6.572;2023-05-18T08:59:48;12.30;80.70
51855;DHT22;37895;53.240;6.572;2023-05-18T09:02:17;12.60;80.80
51855;DHT22;37895;53.240;6.572;2023-05-18T09:04:43;12.80;78.40
51855;DHT22;37895;53.240;6.572;2023-05-18T09:07:10;12.80;78.00
51855;DHT22;37895;53.240;6.572;2023-05-18T09:09:37;12.80;79.50
51855;DHT22;37895;53.240;6.572;2023-05-18T09:12:05;12.60;80.00
51855;DHT22;37895;53.240;6.572;2023-05-18T09:14:32;12.60;80.50
51855;DHT22;37895;53.240;6.572;2023-05-18T09:20:19;12.90;79.50
51855;DHT22;37895;53.240;6.572;2023-05-18T09:26:07;13.30;80.80
51855;DHT22;37895;53.240;6.572;2023-05-18T09:28:41;13.60;80.30
51855;DHT22;37895;53.240;6.572;2023-05-18T09:37:51;14.00;76.50
51855;DHT22;37895;53.240;6.572;2023-05-18T09:47:07;14.10;75.30
51855;DHT22;37895;53.240;6.572;2023-05-18T09:49:34;14.10;76.00
51855;DHT22;37895;53.240;6.572;2023-05-18T09:52:00;14.00;75.70
51855;DHT22;37895;53.240;6.572;2023-05-18T09:54:25;14.00;76.70
51855;DHT22;37895;53.240;6.572;2023-05-18T09:56:51;14.10;77.50
51855;DHT22;37895;53.240;6.572;2023-05-18T09:59:17;14.00;78.20
51855;DHT22;37895;53.240;6.572;2023-05-18T10:01:57;13.90;76.50
51855;DHT22;37895;53.240;6.572;2023-05-18T10:04:38;14.00;78.00
51855;DHT22;37895;53.240;6.572;2023-05-18T10:07:09;13.80;74.50
51855;DHT22;37895;53.240;6.572;2023-05-18T10:09:36;13.70;76.30
51855;DHT22;37895;53.240;6.572;2023-05-18T10:12:02;13.70;76.80
51855;DHT22;37895;53.240;6.572;2023-05-18T10:14:31;13.60;78.40
51855;DHT22;37895;53.240;6.572;2023-05-18T10:17:03;13.80;78.50
51855;DHT22;37895;53.240;6.572;2023-05-18T10:19:31;13.80;79.10
51855;DHT22;37895;53.240;6.572;2023-05-18T10:21:59;13.70;78.40
51855;DHT22;37895;53.240;6.572;2023-05-18T10:24:28;13.50;78.40
51855;DHT22;37895;53.240;6.572;2023-05-18T10:26:56;13.50;78.70
51855;DHT22;37895;53.240;6.572;2023-05-18T10:29:26;13.50;81.10
51855;DHT22;37895;53.240;6.572;2023-05-18T10:31:54;13.50;79.00
51855;DHT22;37895;53.240;6.572;2023-05-18T10:34:27;13.60;78.30
51855;DHT22;37895;53.240;6.572;2023-05-18T10:36:55;13.60;78.10
51855;DHT22;37895;53.240;6.572;2023-05-18T10:39:21;13.60;77.90
51855;DHT22;37895;53.240;6.572;2023-05-18T10:41:47;13.60;76.90
51855;DHT22;37895;53.240;6.572;2023-05-18T10:44:14;13.70;79.40
51855;DHT22;37895;53.240;6.572;2023-05-18T10:46:40;13.80;78.60
51855;DHT22;37895;53.240;6.572;2023-05-18T10:49:06;14.00;76.90
51855;DHT22;37895;53.240;6.572;2023-05-18T10:51:39;14.10;76.10
51855;DHT22;37895;53.240;6.572;2023-05-18T10:54:13;14.20;76.50
51855;DHT22;37895;53.240;6.572;2023-05-18T10:56:44;14.40;78.30
51855;DHT22;37895;53.240;6.572;2023-05-18T10:59:12;14.60;76.90
51855;DHT22;37895;53.240;6.572;2023-05-18T11:01:39;14.60;76.00
51855;DHT22;37895;53.240;6.572;2023-05-18T11:04:08;14.60;76.20
51855;DHT22;37895;53.240;6.572;2023-05-18T11:06:34;14.60;74.90
51855;DHT22;37895;53.240;6.572;2023-05-18T11:09:01;14.70;75.20
51855;DHT22;37895;53.240;6.572;2023-05-18T11:11:29;14.60;75.10
51855;DHT22;37895;53.240;6.572;2023-05-18T11:14:14;14.60;76.00
51855;DHT22;37895;53.240;6.572;2023-05-18T11:16:40;14.70;75.60
51855;DHT22;37895;53.240;6.572;2023-05-18T11:19:07;14.80;75.40
51855;DHT22;37895;53.240;6.572;2023-05-18T11:24:21;14.70;73.60
51855;DHT22;37895;53.240;6.572;2023-05-18T11:26:56;15.10;74.10
51855;DHT22;37895;53.240;6.572;2023-05-18T11:29:36;15.40;73.10
51855;DHT22;37895;53.240;6.572;2023-05-18T11:32:02;15.40;70.80
51855;DHT22;37895;53.240;6.572;2023-05-18T11:34:35;15.20;73.40
51855;DHT22;37895;53.240;6.572;2023-05-18T11:37:01;15.30;72.40
51855;DHT22;37895;53.240;6.572;2023-05-18T11:39:27;15.40;74.60
51855;DHT22;37895;53.240;6.572;2023-05-18T11:42:05;15.10;73.70
51855;DHT22;37895;53.240;6.572;2023-05-18T11:44:31;15.20;71.90
51855;DHT22;37895;53.240;6.572;2023-05-18T11:52:18;15.40;67.60
51855;DHT22;37895;53.240;6.572;2023-05-18T11:54:51;15.30;72.00
51855;DHT22;37895;53.240;6.572;2023-05-18T12:00:39;15.20;71.70
51855;DHT22;37895;53.240;6.572;2023-05-18T12:03:06;15.30;71.20
51855;DHT22;37895;53.240;6.572;2023-05-18T12:05:32;15.50;73.10
51855;DHT22;37895;53.240;6.572;2023-05-18T12:08:00;15.60;71.80
51855;DHT22;37895;53.240;6.572;2023-05-18T12:10:25;15.80;72.10
51855;DHT22;37895;53.240;6.572;2023-05-18T12:12:52;15.90;71.00
51855;DHT22;37895;53.240;6.572;2023-05-18T12:15:22;16.00;69.70
51855;DHT22;37895;53.240;6.572;2023-05-18T12:17:49;15.90;71.60
51855;DHT22;37895;53.240;6.572;2023-05-18T12:22:48;15.60;73.00
51855;DHT22;37895;53.240;6.572;2023-05-18T12:25:24;15.60;74.20
51855;DHT22;37895;53.240;6.572;2023-05-18T12:27:52;15.60;72.20
51855;DHT22;37895;53.240;6.572;2023-05-18T12:30:23;15.70;73.80
51855;DHT22;37895;53.240;6.572;2023-05-18T12:32:56;15.80;72.40
51855;DHT22;37895;53.240;6.572;2023-05-18T12:35:22;15.90;71.90
51855;DHT22;37895;53.240;6.572;2023-05-18T12:37:49;15.90;72.30
51855;DHT22;37895;53.240;6.572;2023-05-18T12:43:36;16.20;70.00
51855;DHT22;37895;53.240;6.572;2023-05-18T12:46:03;16.30;70.90
51855;DHT22;37895;53.240;6.572;2023-05-18T12:48:37;16.30;71.10
51855;DHT22;37895;53.240;6.572;2023-05-18T12:51:17;16.00;72.00
51855;DHT22;37895;53.240;6.572;2023-05-18T12:53:43;15.90;71.60
51855;DHT22;37895;53.240;6.572;2023-05-18T12:56:09;15.90;72.40
51855;DHT22;37895;53.240;6.572;2023-05-18T12:58:37;15.90;72.90
51855;DHT22;37895;53.240;6.572;2023-05-18T13:01:10;15.90;73.00
51855;DHT22;37895;53.240;6.572;2023-05-18T13:03:39;15.90;74.30
51855;DHT22;37895;53.240;6.572;2023-05-18T13:09:45;16.10;72.30
51855;DHT22;37895;53.240;6.572;2023-05-18T13:12:12;16.00;72.40
51855;DHT22;37895;53.240;6.572;2023-05-18T13:14:37;16.40;72.10
51855;DHT22;37895;53.240;6.572;2023-05-18T13:17:03;16.40;72.90
51855;DHT22;37895;53.240;6.572;2023-05-18T13:19:29;16.40;72.90
51855;DHT22;37895;53.240;6.572;2023-05-18T13:21:56;16.40;72.60
51855;DHT22;37895;53.240;6.572;2023-05-18T13:24:21;16.30;71.30
51855;DHT22;37895;53.240;6.572;2023-05-18T13:26:47;16.50;71.90
51855;DHT22;37895;53.240;6.572;2023-05-18T13:29:13;16.30;70.30
51855;DHT22;37895;53.240;6.572;2023-05-18T13:31:38;16.30;71.90
51855;DHT22;37895;53.240;6.572;2023-05-18T13:34:04;16.10;71.80
51855;DHT22;37895;53.240;6.572;2023-05-18T13:36:30;16.10;73.10
51855;DHT22;37895;53.240;6.572;2023-05-18T13:38:58;15.90;72.90
51855;DHT22;37895;53.240;6.572;2023-05-18T13:41:24;15.70;71.80
51855;DHT22;37895;53.240;6.572;2023-05-18T13:43:49;15.70;73.10
51855;DHT22;37895;53.240;6.572;2023-05-18T13:46:15;15.70;74.30
51855;DHT22;37895;53.240;6.572;2023-05-18T13:48:41;15.50;75.90
51855;DHT22;37895;53.240;6.572;2023-05-18T13:51:06;15.70;75.50
51855;DHT22;37895;53.240;6.572;2023-05-18T13:53:32;15.80;75.40
51855;DHT22;37895;53.240;6.572;2023-05-18T13:55:58;15.90;76.00
51855;DHT22;37895;53.240;6.572;2023-05-18T13:58:23;16.20;74.80
51855;DHT22;37895;53.240;6.572;2023-05-18T14:00:49;16.20;76.20
51855;DHT22;37895;53.240;6.572;2023-05-18T14:03:14;16.00;76.00
51855;DHT22;37895;53.240;6.572;2023-05-18T14:05:41;15.90;75.40
51855;DHT22;37895;53.240;6.572;2023-05-18T14:08:07;15.70;73.40
51855;DHT22;37895;53.240;6.572;2023-05-18T14:10:33;16.00;74.70
51855;DHT22;37895;53.240;6.572;2023-05-18T14:12:58;16.20;75.90
51855;DHT22;37895;53.240;6.572;2023-05-18T14:19:14;16.50;75.70
51855;DHT22;37895;53.240;6.572;2023-05-18T14:21:40;16.20;77.60
51855;DHT22;37895;53.240;6.572;2023-05-18T14:24:06;16.20;76.00
51855;DHT22;37895;53.240;6.572;2023-05-18T14:26:33;16.00;76.90
51855;DHT22;37895;53.240;6.572;2023-05-18T14:28:59;15.90;77.40
51855;DHT22;37895;53.240;6.572;2023-05-18T14:31:25;15.60;77.80
51855;DHT22;37895;53.240;6.572;2023-05-18T14:33:50;15.60;77.60
51855;DHT22;37895;53.240;6.572;2023-05-18T14:36:16;15.70;78.20
51855;DHT22;37895;53.240;6.572;2023-05-18T14:38:42;15.80;77.80
51855;DHT22;37895;53.240;6.572;2023-05-18T14:41:08;15.90;78.20
51855;DHT22;37895;53.240;6.572;2023-05-18T14:43:34;16.00;78.10
51855;DHT22;37895;53.240;6.572;2023-05-18T14:46:00;16.10;77.80
51855;DHT22;37895;53.240;6.572;2023-05-18T14:48:28;16.10;78.00
51855;DHT22;37895;53.240;6.572;2023-05-18T14:50:54;16.10;78.40
51855;DHT22;37895;53.240;6.572;2023-05-18T14:53:19;16.30;77.00
51855;DHT22;37895;53.240;6.572;2023-05-18T14:55:45;16.30;77.70
51855;DHT22;37895;53.240;6.572;2023-05-18T14:58:11;16.30;76.50
51855;DHT22;37895;53.240;6.572;2023-05-18T15:00:42;16.20;77.60
51855;DHT22;37895;53.240;6.572;2023-05-18T15:03:08;15.90;77.40
51855;DHT22;37895;53.240;6.572;2023-05-18T15:05:34;16.10;79.00
51855;DHT22;37895;53.240;6.572;2023-05-18T15:08:00;16.30;78.60
51855;DHT22;37895;53.240;6.572;2023-05-18T15:10:26;16.20;77.80
51855;DHT22;37895;53.240;6.572;2023-05-18T15:12:51;16.30;77.20
51855;DHT22;37895;53.240;6.572;2023-05-18T15:15:17;16.10;79.00
51855;DHT22;37895;53.240;6.572;2023-05-18T15:17:43;16.20;79.30
51855;DHT22;37895;53.240;6.572;2023-05-18T15:20:09;15.90;78.80
51855;DHT22;37895;53.240;6.572;2023-05-18T15:22:35;15.80;79.30
51855;DHT22;37895;53.240;6.572;2023-05-18T15:25:03;15.80;78.90
51855;DHT22;37895;53.240;6.572;2023-05-18T15:27:31;15.90;80.00
51855;DHT22;37895;53.240;6.572;2023-05-18T15:29:57;15.90;78.30
51855;DHT22;37895;53.240;6.572;2023-05-18T15:32:23;16.00;78.80
51855;DHT22;37895;53.240;6.572;2023-05-18T15:34:48;15.90;78.70
51855;DHT22;37895;53.240;6.572;2023-05-18T15:37:14;15.80;80.00
51855;DHT22;37895;53.240;6.572;2023-05-18T15:39:39;15.70;78.50
51855;DHT22;37895;53.240;6.572;2023-05-18T15:42:05;15.50;78.50
51855;DHT22;37895;53.240;6.572;2023-05-18T15:44:32;15.50;78.80
51855;DHT22;37895;53.240;6.572;2023-05-18T15:46:57;15.80;79.10
51855;DHT22;37895;53.240;6.572;2023-05-18T15:49:23;15.70;80.60
51855;DHT22;37895;53.240;6.572;2023-05-18T15:51:50;15.80;79.90
51855;DHT22;37895;53.240;6.572;2023-05-18T15:54:16;15.60;80.20
51855;DHT22;37895;53.240;6.572;2023-05-18T15:56:41;15.60;79.70
51855;DHT22;37895;53.240;6.572;2023-05-18T15:59:07;15.70;79.80
51855;DHT22;37895;53.240;6.572;2023-05-18T16:01:34;15.80;80.40
51855;DHT22;37895;53.240;6.572;2023-05-18T16:03:59;15.80;78.90
51855;DHT22;37895;53.240;6.572;2023-05-18T16:06:25;15.50;79.70
51855;DHT22;37895;53.240;6.572;2023-05-18T16:08:50;15.60;80.50
51855;DHT22;37895;53.240;6.572;2023-05-18T16:11:16;15.60;79.10
51855;DHT22;37895;53.240;6.572;2023-05-18T16:13:42;15.80;78.50
51855;DHT22;37895;53.240;6.572;2023-05-18T16:16:07;15.50;78.50
51855;DHT22;37895;53.240;6.572;2023-05-18T16:18:35;15.40;78.70
51855;DHT22;37895;53.240;6.572;2023-05-18T16:21:01;15.60;79.00
51855;DHT22;37895;53.240;6.572;2023-05-18T16:23:27;15.40;79.80
51855;DHT22;37895;53.240;6.572;2023-05-18T16:25:52;15.20;79.90
51855;DHT22;37895;53.240;6.572;2023-05-18T16:28:18;15.30;81.50
51855;DHT22;37895;53.240;6.572;2023-05-18T16:30:44;15.30;81.30
51855;DHT22;37895;53.240;6.572;2023-05-18T16:33:09;15.30;80.60
51855;DHT22;37895;53.240;6.572;2023-05-18T16:35:35;15.20;80.40
51855;DHT22;37895;53.240;6.572;2023-05-18T16:38:01;15.10;82.10
51855;DHT22;37895;53.240;6.572;2023-05-18T16:40:27;15.10;82.20
51855;DHT22;37895;53.240;6.572;2023-05-18T16:42:52;15.20;81.50
51855;DHT22;37895;53.240;6.572;2023-05-18T16:45:18;15.20;81.80
51855;DHT22;37895;53.240;6.572;2023-05-18T16:47:43;15.50;82.40
51855;DHT22;37895;53.240;6.572;2023-05-18T16:50:09;15.60;81.10
51855;DHT22;37895;53.240;6.572;2023-05-18T16:52:35;15.50;81.30